Terminal Aerodrome Forecast
Issued by NWS Newport/Morehead City, NC

Home | Current Version | Previous Version | Graphics & Text | Print | Product List | Glossary On
Versions: 1 2 3 4 5 6 7 8 9 10 11 12 13 14 15 16 17 18 19 20 21 22
000
FTUS42 KMHX 171200 AAA
TAFEWN
TAF AMD
KEWN 171206Z 1712/1812 03010G20KT P6SM SKC
     FM172000 05010KT P6SM BKN035
     FM180900 02010KT P6SM SCT010=

USA.gov is the U.S. government's official web portal to all federal, state and local government web resources and services.